Time;durP1;ratioP1;P1;durP2;ratioP2;P2;SDS_P1;SDS_P2;PMS_P1;PMS_P2;Temp;Humidity;BMP_temperature;BMP_pressure;BME280_temperature;BME280_humidity;BME280_pressure;Samples;Min_cycle;Max_cycle;Signal;HPM_P1;HPM_P2
2023/09/09 00:01:30;;;;;;;16.92;10.55;;;;;;;16.11;100.00;101152.25;4937755;29;20500;-62
2023/09/09 00:03:56;;;;;;;18.60;11.07;;;;;;;16.11;100.00;101152.25;4941159;29;20522;-60
2023/09/09 00:06:23;;;;;;;15.00;10.30;;;;;;;16.04;100.00;101148.63;4940529;29;20044;-61
2023/09/09 00:08:50;;;;;;;16.92;11.07;;;;;;;16.01;100.00;101151.69;4940566;29;20125;-61
2023/09/09 00:11:16;;;;;;;16.00;10.60;;;;;;;15.99;100.00;101148.34;4940860;29;20098;-61
2023/09/09 00:13:45;;;;;;;19.75;10.80;;;;;;;15.88;100.00;101146.09;4940590;29;20044;-60
2023/09/09 00:16:12;;;;;;;14.95;9.70;;;;;;;15.85;100.00;101138.34;4944843;29;20677;-61
2023/09/09 00:18:40;;;;;;;18.02;10.15;;;;;;;15.83;100.00;101140.41;4944627;28;20047;-60
2023/09/09 00:21:07;;;;;;;13.88;10.77;;;;;;;15.77;100.00;101147.38;4944798;29;20103;-61
2023/09/09 00:23:33;;;;;;;16.52;10.30;;;;;;;15.69;100.00;101140.19;4945015;29;20051;-61
2023/09/09 00:26:00;;;;;;;19.13;10.70;;;;;;;15.63;100.00;101143.63;4944372;29;20040;-61
2023/09/09 00:28:27;;;;;;;15.20;11.43;;;;;;;15.64;100.00;101133.63;4945043;29;20079;-61
2023/09/09 00:30:54;;;;;;;16.80;10.93;;;;;;;15.62;100.00;101136.50;4945017;29;20106;-60
2023/09/09 00:33:20;;;;;;;16.60;11.45;;;;;;;15.61;100.00;101129.44;4944689;29;20055;-62
2023/09/09 00:35:47;;;;;;;14.57;11.10;;;;;;;15.39;100.00;101139.22;4944362;29;20397;-59
2023/09/09 00:38:13;;;;;;;17.75;10.82;;;;;;;15.45;100.00;101141.22;4944390;29;20099;-60
2023/09/09 00:40:43;;;;;;;16.05;10.02;;;;;;;15.52;100.00;101133.22;4944422;29;20056;-60
2023/09/09 00:43:10;;;;;;;16.20;10.73;;;;;;;15.48;100.00;101132.75;4944250;29;20047;-60
2023/09/09 00:45:38;;;;;;;21.77;10.45;;;;;;;15.48;100.00;101131.91;4944908;29;20055;-60
2023/09/09 00:48:07;;;;;;;15.35;10.63;;;;;;;15.47;100.00;101130.22;4943915;29;20069;-60
2023/09/09 00:50:34;;;;;;;13.43;10.40;;;;;;;15.43;100.00;101129.75;4944339;29;20056;-60
2023/09/09 00:53:01;;;;;;;16.25;10.63;;;;;;;15.40;100.00;101132.00;4943710;29;20078;-59
2023/09/09 00:55:29;;;;;;;18.83;10.73;;;;;;;15.35;100.00;101135.22;4944638;29;20122;-60
2023/09/09 00:57:55;;;;;;;15.77;11.45;;;;;;;15.29;100.00;101127.81;4945172;29;20054;-60
2023/09/09 01:00:22;;;;;;;14.50;11.27;;;;;;;15.26;100.00;101114.69;4944116;29;20492;-60
2023/09/09 01:02:48;;;;;;;16.40;11.18;;;;;;;15.28;100.00;101119.91;4942724;29;20138;-64
2023/09/09 01:08:56;;;;;;;13.52;10.52;;;;;;;15.12;100.00;101119.03;4935864;29;20050;-64
2023/09/09 01:11:23;;;;;;;16.48;11.10;;;;;;;15.09;100.00;101119.38;4935906;29;20051;-64
2023/09/09 01:13:50;;;;;;;18.15;11.52;;;;;;;15.08;100.00;101114.97;4935787;29;20111;-65
2023/09/09 01:16:17;;;;;;;16.05;11.10;;;;;;;15.10;100.00;101110.25;4935663;29;20461;-65
2023/09/09 01:18:43;;;;;;;15.50;11.73;;;;;;;15.04;100.00;101108.25;4935324;29;20051;-65
2023/09/09 01:21:12;;;;;;;16.88;11.57;;;;;;;14.98;100.00;101109.84;4935793;29;20047;-64
2023/09/09 01:23:39;;;;;;;18.88;11.00;;;;;;;14.99;100.00;101102.56;4935705;29;20428;-64
2023/09/09 01:26:06;;;;;;;15.98;11.18;;;;;;;15.01;100.00;101101.34;4935022;29;20048;-64
2023/09/09 01:28:33;;;;;;;18.83;11.40;;;;;;;14.99;100.00;101099.88;4933982;29;20103;-63
2023/09/09 01:31:00;;;;;;;18.20;11.05;;;;;;;14.96;100.00;101092.13;4936073;29;20079;-62
2023/09/09 01:33:26;;;;;;;16.60;11.30;;;;;;;14.96;100.00;101102.94;4936473;29;20051;-65
2023/09/09 01:35:53;;;;;;;16.75;11.40;;;;;;;14.90;100.00;101096.38;4936419;29;20071;-65
2023/09/09 01:38:19;;;;;;;21.20;12.00;;;;;;;14.93;100.00;101092.47;4935798;29;20066;-65
2023/09/09 01:40:46;;;;;;;18.17;12.00;;;;;;;14.89;100.00;101086.59;4935708;29;20377;-64
2023/09/09 01:43:13;;;;;;;17.48;11.45;;;;;;;14.81;100.00;101088.50;4935978;29;20043;-64
2023/09/09 01:45:39;;;;;;;15.77;11.45;;;;;;;14.77;100.00;101082.63;4935698;29;20059;-64
2023/09/09 01:48:07;;;;;;;16.25;10.93;;;;;;;14.74;100.00;101088.41;4935767;29;20039;-65
2023/09/09 01:50:34;;;;;;;18.23;11.75;;;;;;;14.62;100.00;101073.59;4935800;29;20082;-65
2023/09/09 01:53:02;;;;;;;15.02;11.75;;;;;;;14.63;100.00;101078.78;4918867;29;20052;-63
2023/09/09 01:55:28;;;;;;;14.77;11.38;;;;;;;14.64;100.00;101083.19;4935838;29;20048;-64
2023/09/09 01:57:55;;;;;;;19.00;12.55;;;;;;;14.63;100.00;101078.78;4935183;29;20048;-64
2023/09/09 02:00:22;;;;;;;25.70;12.35;;;;;;;14.52;100.00;101073.81;4935266;29;20051;-65
2023/09/09 02:02:48;;;;;;;22.33;12.43;;;;;;;14.46;100.00;101061.00;4935145;29;20185;-65
2023/09/09 02:05:15;;;;;;;19.50;12.65;;;;;;;14.42;100.00;101055.13;4918429;29;20048;-64
2023/09/09 02:07:43;;;;;;;21.42;13.20;;;;;;;14.44;100.00;101054.97;4935491;29;20052;-65
2023/09/09 02:10:10;;;;;;;20.17;12.48;;;;;;;14.47;100.00;101051.91;4934964;29;20491;-64
2023/09/09 02:12:39;;;;;;;14.43;11.57;;;;;;;14.43;100.00;101058.69;4933718;29;20062;-65
2023/09/09 02:15:09;;;;;;;19.95;12.48;;;;;;;14.46;100.00;101050.22;4934112;29;20463;-64
2023/09/09 02:17:36;;;;;;;20.63;12.40;;;;;;;14.41;100.00;101052.63;4933409;29;20541;-65
2023/09/09 02:20:06;;;;;;;17.65;12.82;;;;;;;14.39;100.00;101046.53;4934156;29;20076;-63
2023/09/09 02:22:33;;;;;;;17.10;12.60;;;;;;;14.15;100.00;101036.72;4933875;29;20419;-65
2023/09/09 02:24:59;;;;;;;21.02;13.25;;;;;;;14.01;100.00;101028.38;4917992;29;20048;-65
2023/09/09 02:27:26;;;;;;;17.95;12.32;;;;;;;13.93;100.00;101014.06;4934630;29;20051;-62
2023/09/09 02:29:53;;;;;;;19.23;12.73;;;;;;;13.90;100.00;101007.16;4931572;29;20047;-64
2023/09/09 02:32:19;;;;;;;21.58;12.68;;;;;;;13.74;100.00;100999.94;4932285;29;20059;-64
2023/09/09 02:34:46;;;;;;;17.00;12.50;;;;;;;13.67;100.00;100987.34;4933436;29;20126;-64
2023/09/09 02:37:20;;;;;;;20.00;12.27;;;;;;;13.47;100.00;100959.94;4932407;29;20051;-64
2023/09/09 02:39:48;;;;;;;19.73;12.80;;;;;;;13.46;100.00;100955.59;4933515;29;20052;-64
2023/09/09 02:42:16;;;;;;;19.17;12.10;;;;;;;13.55;100.00;100954.53;4933518;29;20070;-63
2023/09/09 02:44:43;;;;;;;14.95;11.98;;;;;;;13.54;100.00;100960.94;4933275;29;20107;-64
2023/09/09 02:47:12;;;;;;;18.17;12.65;;;;;;;13.53;100.00;100952.00;4933831;29;20050;-64
2023/09/09 02:49:40;;;;;;;18.85;12.82;;;;;;;13.51;100.00;100950.50;4934264;29;20106;-64
2023/09/09 02:52:06;;;;;;;20.95;12.68;;;;;;;13.28;100.00;100929.69;4934215;29;20077;-65
2023/09/09 02:54:34;;;;;;;21.15;13.18;;;;;;;12.86;100.00;100870.69;4933845;29;20056;-64
2023/09/09 02:57:01;;;;;;;18.25;13.15;;;;;;;12.79;100.00;100858.94;4933990;29;20063;-62
2023/09/09 02:59:27;;;;;;;17.15;12.07;;;;;;;12.61;100.00;100824.13;4932733;29;20043;-66
2023/09/09 03:01:54;;;;;;;18.70;12.73;;;;;;;12.57;100.00;100825.47;4933415;29;20123;-67
2023/09/09 03:04:21;;;;;;;19.70;13.23;;;;;;;12.12;100.00;100765.00;4933163;29;20044;-64
2023/09/09 03:06:48;;;;;;;18.42;12.75;;;;;;;10.59;100.00;100523.84;4933558;29;20472;-63
2023/09/09 03:09:15;;;;;;;19.23;12.73;;;;;;;9.83;100.00;100393.44;4933015;29;20527;-62
2023/09/09 03:11:41;;;;;;;19.08;12.75;;;;;;;10.22;100.00;100452.66;4933326;29;20055;-66
2023/09/09 03:14:09;;;;;;;21.73;13.50;;;;;;;10.36;100.00;100475.31;4933112;29;20102;-63
2023/09/09 03:16:36;;;;;;;19.90;13.40;;;;;;;10.11;100.00;100445.78;4933405;29;20058;-64
2023/09/09 03:19:03;;;;;;;23.30;13.75;;;;;;;9.65;100.00;100370.28;4933430;29;20047;-65
2023/09/09 03:21:33;;;;;;;22.05;13.68;;;;;;;9.55;100.00;100354.34;4932386;29;20063;-64
2023/09/09 03:24:00;;;;;;;19.02;12.98;;;;;;;9.69;100.00;100376.16;4932188;29;20111;-63
2023/09/09 03:26:27;;;;;;;17.88;13.10;;;;;;;9.81;100.00;100393.59;4933479;29;20051;-64
2023/09/09 03:28:54;;;;;;;18.90;13.57;;;;;;;10.21;100.00;100462.56;4933102;29;20087;-63
2023/09/09 03:31:20;;;;;;;16.63;13.82;;;;;;;10.27;100.00;100471.78;4933065;29;20162;-63
2023/09/09 03:33:47;;;;;;;21.40;13.15;;;;;;;9.42;100.00;100343.25;4933282;29;20055;-63
2023/09/09 03:36:13;;;;;;;23.75;13.95;;;;;;;8.61;100.00;100224.16;4932884;29;20479;-66
2023/09/09 03:38:40;;;;;;;21.48;13.50;;;;;;;6.12;100.00;99836.81;4933389;29;20419;-64
2023/09/09 03:41:07;;;;;;;20.08;13.63;;;;;;;5.42;100.00;99721.34;4933024;29;20047;-64
2023/09/09 03:43:35;;;;;;;22.20;13.98;;;;;;;3.94;100.00;99492.25;4932814;29;20059;-63
2023/09/09 03:46:03;;;;;;;18.05;14.57;;;;;;;-0.04;100.00;98850.47;4932376;29;20066;-64
2023/09/09 03:48:30;;;;;;;23.58;13.25;;;;;;;-2.87;100.00;98390.56;4917666;29;20166;-63
2023/09/09 03:51:00;;;;;;;19.33;14.55;;;;;;;-11.79;100.00;96957.38;4939754;29;20492;-64
2023/09/09 03:53:27;;;;;;;18.48;14.15;;;;;;;-97.05;100.00;83880.72;4938125;29;20079;-64
2023/09/09 03:55:54;;;;;;;21.58;13.30;;;;;;;-149.70;100.00;76574.88;4938120;29;20063;-63
2023/09/09 03:58:21;;;;;;;17.83;14.07;;;;;;;-149.70;100.00;76578.94;4937639;29;20428;-61
2023/09/09 04:00:48;;;;;;;20.08;14.20;;;;;;;-149.70;100.00;76583.03;4938316;29;20466;-60
2023/09/09 04:03:15;;;;;;;22.98;15.10;;;;;;;-149.70;100.00;76589.13;4939538;29;20110;-60
2023/09/09 04:05:43;;;;;;;21.13;14.77;;;;;;;-149.70;100.00;76580.97;4939050;29;20107;-60
2023/09/09 04:08:12;;;;;;;23.65;15.27;;;;;;;-149.70;100.00;76583.03;4939039;29;20062;-61
2023/09/09 04:10:38;;;;;;;21.15;13.88;;;;;;;-149.70;100.00;76576.91;4938959;29;20063;-62
2023/09/09 04:13:05;;;;;;;23.50;14.18;;;;;;;-149.70;100.00;76572.84;4938473;29;20051;-65
2023/09/09 04:15:32;;;;;;;19.27;13.25;;;;;;;-149.70;100.00;76568.78;4938455;29;20051;-65
2023/09/09 04:17:58;;;;;;;20.67;14.00;;;;;;;-149.70;100.00;76572.84;4939081;29;20047;-66
2023/09/09 04:20:25;;;;;;;19.08;13.93;;;;;;;-149.70;100.00;76566.75;4938020;29;20063;-65
2023/09/09 04:22:52;;;;;;;21.80;14.57;;;;;;;-149.70;100.00;76562.69;4938652;29;20098;-66
2023/09/09 04:25:18;;;;;;;19.75;14.60;;;;;;;-149.70;100.00;76580.97;4938596;29;20503;-66
2023/09/09 04:27:45;;;;;;;19.00;13.70;;;;;;;-149.70;100.00;76585.06;4938378;29;20056;-66
2023/09/09 04:30:12;;;;;;;19.90;14.63;;;;;;;-149.70;100.00;76580.97;4938546;29;20472;-66
2023/09/09 04:32:38;;;;;;;18.65;13.80;;;;;;;-149.70;100.00;76580.97;4938326;29;20143;-66
2023/09/09 04:35:05;;;;;;;28.40;14.25;;;;;;;-149.70;100.00;76585.06;4938124;29;20047;-67
2023/09/09 04:37:32;;;;;;;22.45;14.43;;;;;;;-149.70;100.00;76587.09;4938422;29;20563;-66
2023/09/09 04:39:59;;;;;;;23.27;15.38;;;;;;;-149.70;100.00;76595.22;4939086;29;20488;-67
2023/09/09 04:42:26;;;;;;;21.98;14.82;;;;;;;-149.70;100.00;76589.13;4938302;29;20168;-66
2023/09/09 04:44:53;;;;;;;21.70;13.65;;;;;;;-149.70;100.00;76589.13;4938295;29;20043;-65
2023/09/09 04:47:19;;;;;;;23.20;14.95;;;;;;;-149.70;100.00;76580.97;4938066;29;20461;-64
2023/09/09 04:49:46;;;;;;;19.08;13.75;;;;;;;-149.70;100.00;76589.13;4937078;29;20090;-66
2023/09/09 04:52:12;;;;;;;21.02;14.88;;;;;;;-149.70;100.00;76595.22;4938406;29;20051;-66
2023/09/09 04:54:39;;;;;;;18.73;13.70;;;;;;;-149.70;100.00;76589.13;4938567;29;20138;-67
2023/09/09 04:57:06;;;;;;;16.90;14.27;;;;;;;-149.70;100.00;76580.97;4938389;29;20055;-67
2023/09/09 04:59:33;;;;;;;17.60;14.48;;;;;;;-149.70;100.00;76578.94;4938671;29;20080;-66
2023/09/09 05:02:00;;;;;;;23.60;14.38;;;;;;;-149.70;100.00;76585.06;4936720;29;20051;-66
2023/09/09 05:04:27;;;;;;;24.50;14.73;;;;;;;-149.70;100.00;76580.97;4935348;29;20044;-67
2023/09/09 05:06:54;;;;;;;22.45;17.25;;;;;;;-149.70;100.00;76585.06;4934524;29;20052;-66
2023/09/09 05:09:20;;;;;;;27.17;18.95;;;;;;;-149.70;100.00;76574.88;4935305;29;20055;-66
2023/09/09 05:11:47;;;;;;;30.25;19.08;;;;;;;-149.70;100.00;76572.84;4936917;29;20051;-59
2023/09/09 05:14:13;;;;;;;19.20;13.68;;;;;;;-149.70;100.00;76580.97;4939820;29;20051;-61
2023/09/09 05:16:40;;;;;;;20.85;14.02;;;;;;;-149.70;100.00;76587.09;4940527;29;20055;-60
2023/09/09 05:19:07;;;;;;;18.67;14.15;;;;;;;-149.70;100.00;76572.84;4939908;29;20047;-58
2023/09/09 05:21:33;;;;;;;21.27;14.73;;;;;;;-149.70;100.00;76574.88;4937001;29;20089;-60
2023/09/09 05:24:00;;;;;;;21.50;14.40;;;;;;;-149.70;100.00;76572.84;4937847;29;20052;-59
2023/09/09 05:26:26;;;;;;;19.42;15.15;;;;;;;-149.70;100.00;76564.72;4936534;29;20496;-59
2023/09/09 05:28:53;;;;;;;18.20;13.95;;;;;;;-149.70;100.00;76572.84;4936332;29;20457;-59
2023/09/09 05:31:19;;;;;;;17.40;14.18;;;;;;;-149.70;100.00;76572.84;4936938;29;20047;-59
2023/09/09 05:33:46;;;;;;;19.10;15.10;;;;;;;-149.70;100.00;76556.59;4936374;29;20058;-59
2023/09/09 05:36:13;;;;;;;22.52;14.07;;;;;;;-149.70;100.00;76558.63;4937090;29;20051;-59
2023/09/09 05:38:39;;;;;;;19.13;14.02;;;;;;;-149.70;100.00;76556.59;4937186;29;20056;-60
2023/09/09 05:41:06;;;;;;;25.88;14.23;;;;;;;-149.70;100.00;76554.56;4936984;29;20555;-60
2023/09/09 05:43:33;;;;;;;25.20;14.60;;;;;;;-149.70;100.00;76552.50;4936716;29;20055;-57
2023/09/09 05:46:00;;;;;;;21.17;14.73;;;;;;;-149.70;100.00;76542.34;4937223;29;20438;-59
2023/09/09 05:48:27;;;;;;;26.55;14.15;;;;;;;-149.70;100.00;76538.28;4937039;29;20469;-59
2023/09/09 05:50:55;;;;;;;19.92;13.90;;;;;;;-149.70;100.00;76538.28;4935272;29;20051;-59
2023/09/09 05:53:22;;;;;;;30.67;13.80;;;;;;;-99.70;100.00;83448.63;4936770;29;20051;-59
2023/09/09 05:55:49;;;;;;;15.82;12.88;;;;;;;-95.22;100.00;84101.44;4936999;29;20136;-61
2023/09/09 05:58:16;;;;;;;17.25;12.50;;;;;;;-28.63;100.00;94206.16;4936414;29;20051;-60
2023/09/09 06:00:43;;;;;;;19.05;13.77;;;;;;;7.65;100.00;100045.25;4936501;29;20052;-59
2023/09/09 06:03:09;;;;;;;22.13;13.55;;;;;;;7.82;100.00;100069.41;4936816;29;20048;-59
2023/09/09 06:05:36;;;;;;;21.00;13.63;;;;;;;9.55;100.00;100337.47;4919145;29;20508;-59
2023/09/09 06:08:03;;;;;;;16.60;12.77;;;;;;;10.40;100.00;100469.44;4936773;29;20063;-59
2023/09/09 06:10:31;;;;;;;22.83;13.73;;;;;;;11.06;100.00;100587.63;4937418;29;20055;-58
2023/09/09 06:12:57;;;;;;;18.60;12.57;;;;;;;12.05;100.00;100729.03;4936026;29;20130;-60
2023/09/09 06:15:24;;;;;;;21.20;12.57;;;;;;;12.63;100.00;100806.78;4936822;29;20048;-59
2023/09/09 06:17:51;;;;;;;21.45;13.52;;;;;;;13.53;100.00;100926.91;4936922;29;20571;-60
2023/09/09 06:20:18;;;;;;;16.83;12.95;;;;;;;13.88;100.00;100967.91;4936807;29;20044;-58
2023/09/09 06:22:45;;;;;;;20.08;12.43;;;;;;;14.49;100.00;101025.56;4935824;29;20131;-58
2023/09/09 06:25:11;;;;;;;17.08;11.57;;;;;;;14.51;100.00;101053.22;4936466;29;20111;-59
2023/09/09 06:27:38;;;;;;;19.00;12.38;;;;;;;14.67;100.00;101061.25;4936844;29;20051;-59
2023/09/09 06:30:05;;;;;;;17.67;12.38;;;;;;;14.66;100.00;101064.09;4936231;29;20485;-58
2023/09/09 06:32:32;;;;;;;18.27;11.57;;;;;;;14.84;100.00;101083.56;4935978;29;20055;-58
2023/09/09 06:34:59;;;;;;;15.50;11.35;;;;;;;15.00;100.00;101083.47;4936789;29;20066;-59
2023/09/09 06:37:25;;;;;;;17.10;11.30;;;;;;;15.03;100.00;101098.47;4936212;29;20054;-59
2023/09/09 06:39:52;;;;;;;16.90;11.95;;;;;;;15.22;100.00;101106.13;4919510;29;20067;-59
2023/09/09 06:42:18;;;;;;;20.60;11.75;;;;;;;15.24;100.00;101109.47;4919519;29;20043;-59
2023/09/09 06:44:45;;;;;;;16.05;12.00;;;;;;;15.57;100.00;101117.31;4936105;29;20047;-59
2023/09/09 06:47:12;;;;;;;19.30;11.80;;;;;;;15.83;100.00;101137.69;4935876;29;20044;-58
2023/09/09 06:49:39;;;;;;;21.60;12.30;;;;;;;16.14;100.00;101141.06;4936264;29;20079;-59
2023/09/09 06:52:05;;;;;;;23.77;11.25;;;;;;;16.28;100.00;101149.38;4935868;29;20476;-59
2023/09/09 06:54:32;;;;;;;29.88;12.00;;;;;;;16.44;100.00;101151.91;4935750;29;20056;-59
2023/09/09 06:56:59;;;;;;;18.27;10.75;;;;;;;16.86;100.00;101162.03;4936373;29;20133;-59
2023/09/09 06:59:25;;;;;;;17.73;11.48;;;;;;;17.14;100.00;101163.97;4935678;29;20095;-58
2023/09/09 07:01:53;;;;;;;16.60;10.98;;;;;;;17.43;100.00;101173.06;4936304;29;20051;-59
2023/09/09 07:04:19;;;;;;;19.27;10.88;;;;;;;17.81;100.00;101177.13;4935292;29;20071;-61
2023/09/09 07:06:47;;;;;;;16.05;10.02;;;;;;;18.51;100.00;101177.16;4934318;29;20127;-60
2023/09/09 07:09:33;;;;;;;16.23;9.38;;;;;;;19.23;100.00;101178.50;4933795;29;20059;-61
2023/09/09 07:12:00;;;;;;;16.23;10.02;;;;;;;19.45;100.00;101185.44;4934459;29;20059;-61
2023/09/09 07:14:27;;;;;;;22.90;9.05;;;;;;;19.52;100.00;101184.59;4935600;29;20052;-59
2023/09/09 07:16:54;;;;;;;17.65;9.80;;;;;;;20.23;100.00;101182.06;4936337;29;20048;-59
2023/09/09 07:19:21;;;;;;;18.55;9.25;;;;;;;20.58;100.00;101173.59;4935544;29;20044;-58
2023/09/09 07:21:47;;;;;;;13.63;8.73;;;;;;;20.83;100.00;101171.78;4935754;29;20141;-65
2023/09/09 07:24:14;;;;;;;13.55;8.57;;;;;;;21.19;100.00;101167.66;4932605;29;20055;-65
2023/09/09 07:26:40;;;;;;;13.73;8.88;;;;;;;21.35;100.00;101179.91;4933104;29;20499;-62
2023/09/09 07:29:07;;;;;;;17.80;9.23;;;;;;;21.68;93.53;101168.75;4932991;29;20106;-63
2023/09/09 07:31:34;;;;;;;13.88;8.90;;;;;;;21.82;91.25;101170.31;4932999;29;20138;-63
2023/09/09 07:34:04;;;;;;;16.35;8.98;;;;;;;23.24;79.19;101166.56;4932991;29;20051;-63
2023/09/09 07:36:31;;;;;;;20.15;8.52;;;;;;;23.36;75.61;101169.31;4933637;29;20060;-64
2023/09/09 07:38:57;;;;;;;12.95;8.45;;;;;;;23.37;75.16;101162.78;4932988;29;20204;-63
2023/09/09 07:41:24;;;;;;;14.32;8.50;;;;;;;23.79;69.82;101163.59;4932970;29;20477;-64
2023/09/09 07:43:50;;;;;;;17.90;7.57;;;;;;;23.53;68.87;101170.31;4933054;29;20067;-62
2023/09/09 07:46:17;;;;;;;15.48;7.47;;;;;;;23.68;67.13;101169.88;4932892;29;20129;-64
2023/09/09 07:48:43;;;;;;;21.17;7.95;;;;;;;23.85;64.07;101168.13;4932683;29;20060;-64
2023/09/09 07:51:10;;;;;;;8.65;7.75;;;;;;;24.89;62.03;101159.94;4932997;29;20098;-65
2023/09/09 07:53:36;;;;;;;11.98;7.43;;;;;;;24.60;61.03;101164.56;4932830;29;20095;-64
2023/09/09 07:56:03;;;;;;;15.82;8.02;;;;;;;24.69;60.32;101167.78;4932995;29;20111;-64
2023/09/09 07:58:30;;;;;;;10.52;7.22;;;;;;;23.71;61.34;101172.97;4933110;29;20464;-64
2023/09/09 08:01:06;;;;;;;12.38;7.25;;;;;;;23.32;64.20;101168.13;4932927;29;20047;-65
2023/09/09 08:03:33;;;;;;;15.02;6.75;;;;;;;23.61;62.58;101160.94;4933062;29;20173;-63
2023/09/09 08:06:06;;;;;;;11.68;7.10;;;;;;;23.30;63.70;101164.81;4933107;29;20055;-63
2023/09/09 08:08:35;;;;;;;8.18;6.65;;;;;;;22.73;67.75;101165.97;4932154;29;20052;-63
2023/09/09 08:11:05;;;;;;;11.60;7.13;;;;;;;23.19;66.89;101166.41;4932842;29;20511;-61
2023/09/09 08:13:32;;;;;;;15.93;6.27;;;;;;;23.66;63.43;101163.78;4932515;29;20111;-63
2023/09/09 08:15:59;;;;;;;10.15;6.88;;;;;;;23.81;63.39;101166.06;4932733;29;20303;-65
2023/09/09 08:18:27;;;;;;;9.70;7.18;;;;;;;24.29;59.22;101168.53;4932727;29;20055;-62
2023/09/09 08:20:53;;;;;;;10.05;6.28;;;;;;;24.84;58.68;101164.47;4932696;29;20051;-64
2023/09/09 08:23:22;;;;;;;10.55;6.03;;;;;;;24.54;57.42;101164.69;4932587;29;20048;-64
2023/09/09 08:25:48;;;;;;;12.85;6.15;;;;;;;24.59;56.77;101162.06;4932428;29;20082;-64
2023/09/09 08:28:15;;;;;;;12.50;6.07;;;;;;;24.03;56.62;101167.16;4932094;29;20059;-64
2023/09/09 08:30:45;;;;;;;9.23;6.53;;;;;;;24.17;57.22;101170.47;4932213;29;20520;-64
2023/09/09 08:33:12;;;;;;;9.30;6.65;;;;;;;25.13;54.67;101160.69;4932309;29;20099;-64
2023/09/09 08:35:38;;;;;;;12.73;6.40;;;;;;;25.90;52.46;101161.97;4932799;29;20134;-63
2023/09/09 08:38:05;;;;;;;8.13;5.85;;;;;;;26.49;50.67;101162.25;4936125;29;20102;-64
2023/09/09 08:40:47;;;;;;;8.70;5.80;;;;;;;26.20;50.04;101166.25;4934900;29;20051;-63
2023/09/09 08:43:35;;;;;;;12.88;6.00;;;;;;;26.65;47.81;101170.69;4935551;29;20039;-63
2023/09/09 08:46:12;;;;;;;8.70;5.45;;;;;;;26.62;47.82;101168.44;4935730;29;20127;-64
2023/09/09 08:48:41;;;;;;;12.25;5.90;;;;;;;27.19;47.32;101160.56;4935614;29;20048;-63
2023/09/09 08:51:13;;;;;;;11.18;6.10;;;;;;;26.88;47.32;101170.44;4935070;29;20054;-64
2023/09/09 08:53:44;;;;;;;13.00;5.68;;;;;;;26.88;47.44;101164.09;4935983;29;20067;-64
2023/09/09 08:56:12;;;;;;;;;;;;;;;27.35;45.18;101163.47;4936031;29;20131;-62
2023/09/09 08:58:42;;;;;;;9.70;5.28;;;;;;;28.33;44.12;101166.66;4935524;29;19922;-64
2023/09/09 09:01:11;;;;;;;14.10;6.30;;;;;;;28.96;43.00;101166.66;4934910;29;20048;-63
2023/09/09 09:03:38;;;;;;;12.68;6.07;;;;;;;28.14;43.90;101171.78;4918819;29;20094;-64
2023/09/09 09:06:05;;;;;;;9.70;5.80;;;;;;;28.44;44.06;101167.56;4935675;29;20560;-63
2023/09/09 09:08:34;;;;;;;9.70;5.22;;;;;;;28.97;41.55;101165.53;4935427;29;20358;-64
2023/09/09 09:11:04;;;;;;;14.80;5.30;;;;;;;28.80;41.68;101162.97;4935758;29;20408;-62
2023/09/09 09:13:32;;;;;;;9.85;5.40;;;;;;;28.23;41.54;101166.59;4935646;29;20470;-64
2023/09/09 09:15:59;;;;;;;11.48;5.18;;;;;;;27.08;42.60;101161.56;4935682;29;20044;-64
2023/09/09 09:18:26;;;;;;;11.65;5.25;;;;;;;28.30;41.42;101164.44;4935303;29;20048;-65
2023/09/09 09:21:05;;;;;;;8.35;5.10;;;;;;;29.49;39.29;101158.16;4935029;29;20492;-65
2023/09/09 09:23:32;;;;;;;8.25;5.32;;;;;;;30.34;38.75;101151.91;4934536;29;20056;-62
2023/09/09 09:25:59;;;;;;;10.82;6.10;;;;;;;31.25;37.10;101158.91;4936411;29;20047;-61
2023/09/09 09:28:29;;;;;;;9.35;5.38;;;;;;;31.97;35.96;101159.09;4935862;29;20489;-61
2023/09/09 09:30:56;;;;;;;12.20;5.40;;;;;;;32.00;35.29;101158.53;4935833;29;20047;-61
2023/09/09 09:33:25;;;;;;;10.38;5.28;;;;;;;31.49;35.39;101158.97;4936048;29;20044;-61
2023/09/09 09:35:51;;;;;;;10.80;5.43;;;;;;;30.88;36.19;101148.31;4935970;29;20056;-61
2023/09/09 09:38:18;;;;;;;24.50;5.10;;;;;;;31.03;35.63;101151.03;4935676;29;20099;-63
2023/09/09 09:40:45;;;;;;;10.90;5.03;;;;;;;31.82;34.66;101153.69;4935552;29;20058;-62
2023/09/09 09:43:19;;;;;;;11.48;5.10;;;;;;;32.62;33.48;101148.34;4935687;29;20052;-61
2023/09/09 09:45:45;;;;;;;14.52;4.85;;;;;;;33.08;32.58;101156.03;4935551;29;20052;-61
2023/09/09 09:48:26;;;;;;;8.82;6.03;;;;;;;33.36;32.25;101140.25;4934952;29;20130;-62
2023/09/09 09:50:53;;;;;;;16.80;6.63;;;;;;;33.82;31.47;101139.44;4935215;29;20102;-62
2023/09/09 09:53:20;;;;;;;9.35;4.78;;;;;;;32.54;32.31;101145.38;4934153;29;20424;-62
2023/09/09 09:55:50;;;;;;;9.43;5.65;;;;;;;32.70;32.13;101146.03;4933646;29;20114;-63
2023/09/09 09:58:17;;;;;;;10.60;5.28;;;;;;;32.07;33.04;101142.34;4934183;29;20047;-61
2023/09/09 10:00:44;;;;;;;7.30;4.40;;;;;;;32.44;33.17;101132.44;4934005;29;20059;-62
2023/09/09 10:03:14;;;;;;;7.47;4.90;;;;;;;31.99;33.50;101129.09;4934225;29;20416;-63
2023/09/09 10:05:44;;;;;;;15.75;5.25;;;;;;;32.03;33.04;101134.94;4933707;29;20484;-61
2023/09/09 10:08:27;;;;;;;7.75;4.47;;;;;;;32.27;32.37;101129.31;4933932;29;20048;-61
2023/09/09 10:11:10;;;;;;;11.32;5.07;;;;;;;33.04;31.65;101118.84;4933850;29;20106;-61
2023/09/09 10:13:39;;;;;;;7.78;4.38;;;;;;;32.35;32.35;101123.97;4934413;29;20132;-60
2023/09/09 10:16:12;;;;;;;7.03;4.20;;;;;;;32.05;30.87;101121.56;4934315;29;20047;-65
2023/09/09 10:18:41;;;;;;;6.88;4.43;;;;;;;31.87;31.17;101120.34;4931926;29;20107;-59
2023/09/09 10:21:09;;;;;;;11.77;4.43;;;;;;;32.50;30.77;101120.16;4935373;29;20043;-61
2023/09/09 10:23:36;;;;;;;10.32;4.57;;;;;;;32.77;30.57;101115.91;4934897;29;20059;-59
2023/09/09 10:26:06;;;;;;;8.70;4.05;;;;;;;32.56;29.94;101107.88;4935149;29;20082;-60
2023/09/09 10:28:33;;;;;;;7.05;3.97;;;;;;;32.27;30.48;101116.31;4934524;29;20051;-61
2023/09/09 10:31:01;;;;;;;5.78;3.58;;;;;;;32.65;29.49;101122.75;4935586;29;20052;-60
2023/09/09 10:33:31;;;;;;;7.78;3.70;;;;;;;30.55;30.31;101118.34;4935233;29;20067;-61
2023/09/09 10:35:59;;;;;;;6.50;3.25;;;;;;;29.70;31.05;101111.94;4935001;29;20043;-59
2023/09/09 10:38:26;;;;;;;6.80;4.18;;;;;;;29.68;30.78;101112.25;4934476;29;20055;-58
2023/09/09 10:40:53;;;;;;;4.63;3.60;;;;;;;29.72;31.32;101104.22;4934740;29;20056;-61
2023/09/09 10:43:20;;;;;;;9.10;4.13;;;;;;;29.24;31.75;101104.50;4934900;29;20139;-60
2023/09/09 10:45:49;;;;;;;7.32;4.03;;;;;;;29.42;31.53;101116.94;4934550;29;20060;-60
2023/09/09 10:48:20;;;;;;;5.55;3.95;;;;;;;29.14;33.03;101104.50;4934332;29;20039;-59
2023/09/09 10:50:49;;;;;;;5.65;3.83;;;;;;;29.72;31.77;101110.56;4935212;28;20051;-58
2023/09/09 10:53:26;;;;;;;7.72;5.22;;;;;;;30.08;29.87;101103.03;4934365;29;20051;-59
2023/09/09 10:55:55;;;;;;;8.00;4.00;;;;;;;30.27;30.71;101105.16;4933545;28;20063;-59
2023/09/09 10:58:31;;;;;;;6.00;4.03;;;;;;;28.81;32.23;101103.91;4934258;29;20436;-60
2023/09/09 11:00:59;;;;;;;6.45;4.43;;;;;;;29.08;32.30;101100.06;4935314;29;20130;-60
2023/09/09 11:03:37;;;;;;;6.32;4.60;;;;;;;29.15;32.26;101097.91;4933943;29;20429;-60
2023/09/09 11:06:06;;;;;;;7.10;4.30;;;;;;;29.30;32.17;101095.13;4934224;29;20047;-60
2023/09/09 11:08:45;;;;;;;7.18;4.43;;;;;;;28.96;33.16;101091.25;4934306;29;20177;-60
2023/09/09 11:11:15;;;;;;;6.13;3.80;;;;;;;29.48;33.03;101082.69;4934392;29;20047;-59
2023/09/09 11:13:57;;;;;;;6.28;3.90;;;;;;;29.11;32.67;101085.72;4934195;29;20055;-60